createdAt,value
2024-04-07T00:01:59.330Z,4.80
2024-04-07T00:04:27.285Z,4.00
2024-04-07T00:06:55.335Z,8.20
2024-04-07T00:09:23.198Z,3.90
2024-04-07T00:11:51.050Z,3.60
2024-04-07T00:14:20.483Z,2.70
2024-04-07T00:16:48.520Z,5.10
2024-04-07T00:19:16.328Z,3.50
2024-04-07T00:21:44.637Z,4.30
2024-04-07T00:24:12.368Z,2.60
2024-04-07T00:26:40.178Z,5.00
2024-04-07T00:29:07.838Z,3.10
2024-04-07T00:31:35.639Z,6.30
2024-04-07T00:34:03.669Z,5.00
2024-04-07T00:36:31.331Z,4.60
2024-04-07T00:38:59.029Z,4.10
2024-04-07T00:41:28.501Z,4.40
2024-04-07T00:43:56.500Z,3.10
2024-04-07T00:46:24.469Z,6.00
2024-04-07T00:48:52.375Z,3.90
2024-04-07T00:51:20.605Z,5.30
2024-04-07T00:53:48.646Z,4.10
2024-04-07T00:56:16.497Z,5.00
2024-04-07T00:58:44.711Z,2.80
2024-04-07T01:01:13.009Z,5.20
2024-04-07T01:03:41.056Z,5.90
2024-04-07T01:06:09.442Z,3.00
2024-04-07T01:08:37.428Z,5.20
2024-04-07T01:11:05.521Z,3.30
2024-04-07T01:13:35.698Z,7.50
2024-04-07T01:16:03.723Z,6.60
2024-04-07T01:18:31.682Z,2.70
2024-04-07T01:20:59.560Z,5.50
2024-04-07T01:23:27.399Z,4.10
2024-04-07T01:25:55.450Z,6.50
2024-04-07T01:28:23.435Z,3.20
2024-04-07T01:30:51.787Z,9.30
2024-04-07T01:33:19.828Z,6.40
2024-04-07T01:35:47.945Z,5.20
2024-04-07T01:38:16.726Z,3.80
2024-04-07T01:40:48.910Z,4.10
2024-04-07T01:43:16.802Z,4.60
2024-04-07T01:45:44.826Z,6.10
2024-04-07T01:48:12.853Z,7.80
2024-04-07T01:50:41.292Z,4.40
2024-04-07T01:53:10.204Z,4.80
2024-04-07T01:55:38.212Z,7.90
2024-04-07T01:58:06.052Z,4.50
2024-04-07T02:00:34.351Z,9.70
2024-04-07T02:03:02.284Z,8.20
2024-04-07T02:05:30.230Z,8.30
2024-04-07T02:07:58.087Z,13.70
2024-04-07T02:10:26.018Z,3.40
2024-04-07T02:12:53.726Z,7.40
2024-04-07T02:15:21.764Z,6.50
2024-04-07T02:17:49.638Z,3.20
2024-04-07T02:20:18.278Z,4.30
2024-04-07T02:22:46.253Z,4.80
2024-04-07T02:25:14.058Z,6.80
2024-04-07T02:27:41.867Z,3.80
2024-04-07T02:30:10.171Z,3.60
2024-04-07T02:32:37.977Z,5.50
2024-04-07T02:35:06.123Z,7.80
2024-04-07T02:37:34.185Z,6.10
2024-04-07T02:40:02.033Z,5.80
2024-04-07T02:42:29.876Z,3.90
2024-04-07T02:45:16.550Z,3.60
2024-04-07T02:48:02.959Z,3.00
2024-04-07T02:50:37.307Z,4.20
2024-04-07T02:53:05.566Z,4.50
2024-04-07T02:55:34.437Z,8.20
2024-04-07T02:58:02.415Z,8.40
2024-04-07T03:00:31.832Z,8.20
2024-04-07T03:02:59.598Z,5.50
2024-04-07T03:05:27.221Z,7.80
2024-04-07T03:07:55.549Z,12.00
2024-04-07T03:10:23.276Z,11.30
2024-04-07T03:12:50.969Z,13.30
2024-04-07T03:15:18.929Z,11.90
2024-04-07T03:17:46.691Z,15.90
2024-04-07T03:20:14.800Z,17.90
2024-04-07T03:22:42.573Z,16.40
2024-04-07T03:25:10.251Z,7.70
2024-04-07T03:27:38.268Z,12.40
2024-04-07T03:30:07.048Z,9.50
2024-04-07T03:32:35.178Z,9.90
2024-04-07T03:35:02.925Z,6.20
2024-04-07T03:37:30.726Z,7.60
2024-04-07T03:39:58.658Z,6.90
2024-04-07T03:42:26.606Z,16.10
2024-04-07T03:44:54.502Z,8.10
2024-04-07T03:47:22.246Z,13.50
2024-04-07T03:49:50.078Z,5.10
2024-04-07T03:52:17.825Z,12.20
2024-04-07T03:54:45.679Z,7.10
2024-04-07T03:57:14.244Z,6.10
2024-04-07T03:59:42.023Z,6.90
2024-04-07T04:02:09.833Z,8.10
2024-04-07T04:04:37.914Z,11.40
2024-04-07T04:07:05.797Z,8.10
2024-04-07T04:09:33.758Z,7.70
2024-04-07T04:12:04.911Z,6.20
2024-04-07T04:14:32.934Z,11.70
2024-04-07T04:17:02.005Z,5.50
2024-04-07T04:19:30.088Z,8.20
2024-04-07T04:21:58.006Z,12.60
2024-04-07T04:24:25.756Z,12.40
2024-04-07T04:26:53.756Z,8.30
2024-04-07T04:29:26.814Z,10.40
2024-04-07T04:31:58.968Z,9.80
2024-04-07T04:34:26.634Z,8.60
2024-04-07T04:36:54.501Z,9.30
2024-04-07T04:39:25.382Z,6.80
2024-04-07T04:41:53.834Z,8.30
2024-04-07T04:44:22.123Z,9.40
2024-04-07T04:46:50.106Z,8.10
2024-04-07T04:49:17.959Z,6.90
2024-04-07T04:51:47.337Z,8.00
2024-04-07T04:54:15.322Z,13.30
2024-04-07T04:56:43.338Z,8.70
2024-04-07T04:59:11.541Z,8.10
2024-04-07T05:01:39.637Z,265.70
2024-04-07T05:04:07.492Z,210.00
2024-04-07T05:06:35.330Z,319.10
2024-04-07T05:09:06.101Z,37.70
2024-04-07T05:11:34.199Z,23.30
2024-04-07T05:14:02.138Z,22.60
2024-04-07T05:16:30.829Z,11.90
2024-04-07T05:18:58.800Z,7.80
2024-04-07T05:21:26.525Z,9.30
2024-04-07T05:23:54.822Z,8.40
2024-04-07T05:26:23.249Z,9.80
2024-04-07T05:28:51.306Z,10.30
2024-04-07T05:31:19.425Z,11.50
2024-04-07T05:33:48.939Z,10.60
2024-04-07T05:36:16.801Z,5.60
2024-04-07T05:38:44.777Z,9.30
2024-04-07T05:41:12.889Z,9.10
2024-04-07T05:43:40.737Z,8.90
2024-04-07T05:46:09.909Z,9.00
2024-04-07T05:48:38.003Z,16.10
2024-04-07T05:51:14.448Z,11.30
2024-04-07T05:53:42.338Z,24.30
2024-04-07T05:56:14.036Z,13.90
2024-04-07T05:58:42.103Z,9.70
2024-04-07T06:01:10.004Z,32.70
2024-04-07T06:03:37.951Z,8.80
2024-04-07T06:06:06.071Z,12.20
2024-04-07T06:08:33.803Z,7.40
2024-04-07T06:11:03.588Z,11.50
2024-04-07T06:13:31.587Z,18.20
2024-04-07T06:15:59.574Z,11.00
2024-04-07T06:18:27.579Z,18.60
2024-04-07T06:20:57.526Z,37.10
2024-04-07T06:23:25.643Z,14.40
2024-04-07T06:25:53.616Z,18.30
2024-04-07T06:28:21.729Z,9.80
2024-04-07T06:30:49.771Z,11.40
2024-04-07T06:33:17.801Z,15.70
2024-04-07T06:35:45.742Z,9.80
2024-04-07T06:38:13.627Z,12.30
2024-04-07T06:40:41.592Z,11.10
2024-04-07T06:43:09.523Z,13.70
2024-04-07T06:45:37.461Z,9.10
2024-04-07T06:48:05.839Z,5.30
2024-04-07T06:50:33.788Z,7.90
2024-04-07T06:53:02.185Z,6.40
2024-04-07T06:55:30.169Z,5.20
2024-04-07T06:57:57.968Z,6.60
2024-04-07T07:00:25.839Z,9.40
2024-04-07T07:02:53.995Z,4.70
2024-04-07T07:05:23.952Z,3.00
2024-04-07T07:07:52.007Z,4.60
2024-04-07T07:10:20.885Z,6.00
2024-04-07T07:12:48.868Z,4.70
2024-04-07T07:15:17.376Z,4.40
2024-04-07T07:17:45.309Z,7.40
2024-04-07T07:20:14.517Z,6.40
2024-04-07T07:22:42.745Z,8.30
2024-04-07T07:25:11.465Z,7.50
2024-04-07T07:27:39.509Z,4.90
2024-04-07T07:30:07.574Z,9.50
2024-04-07T07:32:35.871Z,5.00
2024-04-07T07:35:04.106Z,6.80
2024-04-07T07:37:31.936Z,3.50
2024-04-07T07:40:00.098Z,10.40
2024-04-07T07:42:28.041Z,16.60
2024-04-07T07:44:56.345Z,4.30
2024-04-07T07:47:24.133Z,4.40
2024-04-07T07:49:52.148Z,6.50
2024-04-07T07:52:19.929Z,4.20
2024-04-07T07:54:48.100Z,6.60
2024-04-07T07:57:16.165Z,3.50
2024-04-07T07:59:43.843Z,4.30
2024-04-07T08:02:11.855Z,5.60
2024-04-07T08:04:39.909Z,14.50
2024-04-07T08:07:08.578Z,1.80
2024-04-07T08:09:36.743Z,4.30
2024-04-07T08:12:05.276Z,4.90
2024-04-07T08:14:33.337Z,3.00
2024-04-07T08:17:01.065Z,4.80
2024-04-07T08:19:29.089Z,6.10
2024-04-07T08:21:57.112Z,2.70
2024-04-07T08:24:25.017Z,5.40
2024-04-07T08:26:52.879Z,3.70
2024-04-07T08:29:21.029Z,3.80
2024-04-07T08:31:49.521Z,2.50
2024-04-07T08:34:17.548Z,2.60
2024-04-07T08:36:45.593Z,3.30
2024-04-07T08:39:13.751Z,7.20
2024-04-07T08:41:42.438Z,2.20
2024-04-07T08:44:10.468Z,4.00
2024-04-07T08:46:38.549Z,6.00
2024-04-07T08:49:06.769Z,3.10
2024-04-07T08:51:36.832Z,3.40
2024-04-07T08:54:05.783Z,3.50
2024-04-07T08:56:36.538Z,1.60
2024-04-07T08:59:07.481Z,2.50
2024-04-07T09:01:35.886Z,1.60
2024-04-07T09:04:04.244Z,3.20
2024-04-07T09:06:32.522Z,4.30
2024-04-07T09:09:00.723Z,3.20
2024-04-07T09:11:28.753Z,1.10
2024-04-07T09:13:56.828Z,1.00
2024-04-07T09:16:24.924Z,1.50
2024-04-07T09:18:52.823Z,2.10
2024-04-07T09:21:23.098Z,3.10
2024-04-07T09:23:52.017Z,1.70
2024-04-07T09:26:21.174Z,3.00
2024-04-07T09:28:50.027Z,1.10
2024-04-07T09:31:20.860Z,1.80
2024-04-07T09:33:49.554Z,4.20
2024-04-07T09:36:17.514Z,5.50
2024-04-07T09:38:45.525Z,0.90
2024-04-07T09:41:13.448Z,3.40
2024-04-07T09:43:41.248Z,7.00
2024-04-07T09:46:09.287Z,7.10
2024-04-07T09:48:37.248Z,2.10
2024-04-07T09:51:05.978Z,4.70
2024-04-07T09:53:40.079Z,3.40
2024-04-07T09:56:09.172Z,7.70
2024-04-07T09:58:39.673Z,8.30
2024-04-07T10:01:07.660Z,1.00
2024-04-07T10:03:35.926Z,2.10
2024-04-07T10:06:04.016Z,2.00
2024-04-07T10:08:32.347Z,2.00
2024-04-07T10:11:08.020Z,3.30
2024-04-07T10:13:37.343Z,2.80
2024-04-07T10:16:05.562Z,4.00
2024-04-07T10:18:33.525Z,1.70
2024-04-07T10:21:01.396Z,1.60
2024-04-07T10:23:29.368Z,1.00
2024-04-07T10:26:04.571Z,1.50
2024-04-07T10:28:48.545Z,1.10
2024-04-07T10:31:33.713Z,1.30
2024-04-07T10:34:02.390Z,4.00
2024-04-07T10:36:34.926Z,2.10
2024-04-07T10:39:04.099Z,5.30
2024-04-07T10:41:32.777Z,1.30
2024-04-07T10:44:01.645Z,3.30
2024-04-07T10:46:31.126Z,3.80
2024-04-07T10:48:59.707Z,2.20
2024-04-07T10:51:28.438Z,1.70
2024-04-07T10:54:01.045Z,1.60
2024-04-07T10:56:29.975Z,1.10
2024-04-07T10:59:02.268Z,3.30
2024-04-07T11:01:31.229Z,2.40
2024-04-07T11:03:59.383Z,1.80
2024-04-07T11:06:27.527Z,4.60
2024-04-07T11:08:55.706Z,1.60
2024-04-07T11:11:24.457Z,2.70
2024-04-07T11:13:55.550Z,3.30
2024-04-07T11:16:23.834Z,1.80
2024-04-07T11:18:51.511Z,3.10
2024-04-07T11:21:20.225Z,1.20
2024-04-07T11:23:48.336Z,2.50
2024-04-07T11:26:17.304Z,2.90
2024-04-07T11:28:45.144Z,1.50
2024-04-07T11:31:13.333Z,2.10
2024-04-07T11:33:41.245Z,3.00
2024-04-07T11:36:10.516Z,2.10
2024-04-07T11:38:40.067Z,2.70
2024-04-07T11:41:08.035Z,1.90
2024-04-07T11:43:35.917Z,3.60
2024-04-07T11:46:04.593Z,3.10
2024-04-07T11:48:32.567Z,6.40
2024-04-07T11:51:00.360Z,1.10
2024-04-07T11:53:28.215Z,2.50
2024-04-07T11:55:55.993Z,5.50
2024-04-07T11:58:24.960Z,1.40
2024-04-07T12:00:54.236Z,1.30
2024-04-07T12:03:31.101Z,2.20
2024-04-07T12:05:59.132Z,1.40
2024-04-07T12:08:26.966Z,2.00
2024-04-07T12:10:55.105Z,6.00
2024-04-07T12:13:22.903Z,2.00
2024-04-07T12:15:50.599Z,6.30
2024-04-07T12:18:18.562Z,2.50
2024-04-07T12:20:46.505Z,1.00
2024-04-07T12:23:14.490Z,1.70
2024-04-07T12:25:42.348Z,11.90
2024-04-07T12:28:10.054Z,18.60
2024-04-07T12:30:38.006Z,4.90
2024-04-07T12:33:05.985Z,2.00
2024-04-07T12:35:34.671Z,5.40
2024-04-07T12:38:03.167Z,2.30
2024-04-07T12:40:31.173Z,8.70
2024-04-07T12:42:59.108Z,5.00
2024-04-07T12:45:27.900Z,19.30
2024-04-07T12:47:55.741Z,5.50
2024-04-07T12:50:23.624Z,6.20
2024-04-07T12:52:52.354Z,3.80
2024-04-07T12:55:20.715Z,6.50
2024-04-07T12:57:48.775Z,5.00
2024-04-07T13:00:17.011Z,6.90
2024-04-07T13:02:45.000Z,8.00
2024-04-07T13:05:13.020Z,12.00
2024-04-07T13:07:41.145Z,3.00
2024-04-07T13:10:09.284Z,4.00
2024-04-07T13:12:37.173Z,4.00
2024-04-07T13:15:08.085Z,7.80
2024-04-07T13:17:36.871Z,9.10
2024-04-07T13:20:05.691Z,2.30
2024-04-07T13:22:33.799Z,7.10
2024-04-07T13:25:01.600Z,2.40
2024-04-07T13:27:29.668Z,5.90
2024-04-07T13:29:57.606Z,1.80
2024-04-07T13:32:25.493Z,4.40
2024-04-07T13:58:20.398Z,6.30
2024-04-07T14:21:30.711Z,5.00
2024-04-07T14:23:58.671Z,10.20
2024-04-07T14:26:26.784Z,20.30
2024-04-07T14:28:54.764Z,8.40
2024-04-07T14:31:22.985Z,6.00
2024-04-07T14:33:51.073Z,2.80
2024-04-07T14:36:18.987Z,5.20
2024-04-07T14:38:47.039Z,3.00
2024-04-07T14:41:14.968Z,2.60
2024-04-07T14:43:43.004Z,2.90
2024-04-07T14:46:12.332Z,7.90
2024-04-07T14:48:40.460Z,10.40
2024-04-07T14:51:08.857Z,3.50
2024-04-07T14:53:36.899Z,4.80
2024-04-07T14:56:05.490Z,4.50
2024-04-07T14:58:33.723Z,9.00
2024-04-07T15:01:01.939Z,7.40
2024-04-07T15:03:29.900Z,6.40
2024-04-07T15:05:58.269Z,8.30
2024-04-07T15:08:26.160Z,8.50
2024-04-07T15:11:01.458Z,4.80
2024-04-07T15:13:31.352Z,3.20
2024-04-07T15:16:00.390Z,5.40
2024-04-07T15:18:29.453Z,6.00
2024-04-07T15:21:01.582Z,11.50
2024-04-07T15:23:29.772Z,6.90
2024-04-07T15:26:01.194Z,5.50
2024-04-07T15:28:29.203Z,5.70
2024-04-07T15:30:57.049Z,7.20
2024-04-07T15:33:24.860Z,4.80
2024-04-07T15:35:52.880Z,5.80
2024-04-07T15:38:24.421Z,6.60
2024-04-07T15:40:52.383Z,4.90
2024-04-07T15:43:20.769Z,7.10
2024-04-07T15:45:48.779Z,3.40
2024-04-07T15:48:17.013Z,18.80
2024-04-07T15:50:44.981Z,7.50
2024-04-07T15:53:12.856Z,34.30
2024-04-07T15:55:40.711Z,37.50
2024-04-07T15:58:09.111Z,19.60
2024-04-07T16:00:41.781Z,9.30
2024-04-07T16:03:09.756Z,16.20
2024-04-07T16:05:39.724Z,5.70
2024-04-07T16:08:10.787Z,7.10
2024-04-07T16:10:38.991Z,5.30
2024-04-07T16:13:07.141Z,73.90
2024-04-07T16:15:35.066Z,8.10
2024-04-07T16:18:03.009Z,7.30
2024-04-07T16:20:30.860Z,10.90
2024-04-07T16:22:58.917Z,6.70
2024-04-07T16:25:26.925Z,6.40
2024-04-07T16:27:56.866Z,6.50
2024-04-07T16:30:26.678Z,4.00
2024-04-07T16:32:54.779Z,9.60
2024-04-07T16:35:22.838Z,23.10
2024-04-07T16:37:50.701Z,14.10
2024-04-07T16:40:18.989Z,7.10
2024-04-07T16:42:47.445Z,6.90
2024-04-07T16:45:15.718Z,7.30
2024-04-07T16:47:44.055Z,5.90
2024-04-07T16:50:12.337Z,5.00
2024-04-07T16:52:40.257Z,11.10
2024-04-07T16:55:08.258Z,6.10
2024-04-07T16:57:36.095Z,8.70
2024-04-07T17:00:04.843Z,9.50
2024-04-07T17:02:33.617Z,7.60
2024-04-07T17:05:01.501Z,9.80
2024-04-07T17:07:29.290Z,11.00
2024-04-07T17:09:58.022Z,13.90
2024-04-07T17:12:26.544Z,12.80
2024-04-07T17:14:54.446Z,15.30
2024-04-07T17:17:23.025Z,9.10
2024-04-07T17:19:51.060Z,10.80
2024-04-07T17:22:19.211Z,14.50
2024-04-07T17:24:47.069Z,16.50
2024-04-07T17:27:15.100Z,18.90
2024-04-07T17:29:42.998Z,24.60
2024-04-07T17:32:11.119Z,28.40
2024-04-07T17:34:38.901Z,27.90
2024-04-07T17:37:06.910Z,22.20
2024-04-07T17:39:34.875Z,19.90
2024-04-07T17:42:03.652Z,14.70
2024-04-07T17:44:32.440Z,11.50
2024-04-07T17:47:00.383Z,15.10
2024-04-07T17:49:30.470Z,15.60
2024-04-07T17:52:00.557Z,28.20
2024-04-07T17:54:30.865Z,20.70
2024-04-07T17:57:02.695Z,20.50
2024-04-07T17:59:39.669Z,19.50
2024-04-07T18:02:12.602Z,21.80
2024-04-07T18:04:42.057Z,20.70
2024-04-07T18:07:10.155Z,21.60
2024-04-07T18:09:38.032Z,21.00
2024-04-07T18:12:06.091Z,16.40
2024-04-07T18:14:34.284Z,21.00
2024-04-07T18:17:02.416Z,19.20
2024-04-07T18:19:30.359Z,19.00
2024-04-07T18:21:58.710Z,23.00
2024-04-07T18:24:26.724Z,24.10
2024-04-07T18:26:55.658Z,22.00
2024-04-07T18:29:23.817Z,32.30
2024-04-07T18:31:52.231Z,30.30
2024-04-07T18:34:20.462Z,37.30
2024-04-07T18:36:48.613Z,29.60
2024-04-07T18:39:17.042Z,40.00
2024-04-07T18:41:44.915Z,41.00
2024-04-07T18:44:12.682Z,41.50
2024-04-07T18:46:40.862Z,34.40
2024-04-07T18:49:09.682Z,32.90
2024-04-07T18:51:39.811Z,21.50
2024-04-07T18:54:09.423Z,20.20
2024-04-07T18:56:39.090Z,11.50
2024-04-07T18:59:07.161Z,16.70
2024-04-07T19:01:35.744Z,7.90
2024-04-07T19:04:05.474Z,8.20
2024-04-07T19:06:36.210Z,15.80
2024-04-07T19:09:04.264Z,18.80
2024-04-07T19:11:32.347Z,9.80
2024-04-07T19:14:00.588Z,10.40
2024-04-07T19:16:30.521Z,11.30
2024-04-07T19:18:59.027Z,23.30
2024-04-07T19:21:27.977Z,11.90
2024-04-07T19:23:56.238Z,8.60
2024-04-07T19:26:24.155Z,15.80
2024-04-07T19:28:52.493Z,12.10
2024-04-07T19:31:20.568Z,13.20
2024-04-07T19:33:48.414Z,7.90
2024-04-07T19:36:17.815Z,7.80
2024-04-07T19:38:46.729Z,6.60
2024-04-07T19:41:14.738Z,4.30
2024-04-07T19:43:42.988Z,7.80
2024-04-07T19:46:11.089Z,6.00
2024-04-07T19:48:39.028Z,4.10
2024-04-07T19:51:06.909Z,9.50
2024-04-07T19:53:34.867Z,6.90
2024-04-07T19:56:02.596Z,5.40
2024-04-07T19:58:30.410Z,4.70
2024-04-07T20:00:58.616Z,5.60
2024-04-07T20:03:27.181Z,8.20
2024-04-07T20:05:55.255Z,6.60
2024-04-07T20:08:24.979Z,7.20
2024-04-07T20:10:54.827Z,8.90
2024-04-07T20:13:23.871Z,8.20
2024-04-07T20:15:53.186Z,6.30
2024-04-07T20:18:23.294Z,7.00
2024-04-07T20:20:51.937Z,7.40
2024-04-07T20:23:19.793Z,7.80
2024-04-07T20:25:47.803Z,12.70
2024-04-07T20:28:15.651Z,13.30
2024-04-07T20:30:43.500Z,7.50
2024-04-07T20:33:11.230Z,5.60
2024-04-07T20:35:39.134Z,5.30
2024-04-07T20:38:07.475Z,8.10
2024-04-07T20:40:35.957Z,5.10
2024-04-07T20:43:03.859Z,4.20
2024-04-07T20:45:31.802Z,4.50
2024-04-07T20:47:59.682Z,6.50
2024-04-07T20:50:30.556Z,7.30
2024-04-07T20:52:58.714Z,11.30
2024-04-07T20:55:26.668Z,8.10
2024-04-07T20:57:54.547Z,5.20
2024-04-07T21:00:33.613Z,8.10
2024-04-07T21:03:05.296Z,8.60
2024-04-07T21:05:33.497Z,8.20
2024-04-07T21:08:01.399Z,8.30
2024-04-07T21:10:29.404Z,4.30
2024-04-07T21:12:57.294Z,4.20
2024-04-07T21:15:25.475Z,5.00
2024-04-07T21:17:53.818Z,6.10
2024-04-07T21:20:22.454Z,7.90
2024-04-07T21:22:50.417Z,6.40
2024-04-07T21:25:18.579Z,9.90
2024-04-07T21:27:46.798Z,4.10
2024-04-07T21:30:15.974Z,5.40
2024-04-07T21:32:44.218Z,7.30
2024-04-07T21:35:12.250Z,6.10
2024-04-07T21:37:43.539Z,5.60
2024-04-07T21:40:11.941Z,5.70
2024-04-07T21:42:39.837Z,9.10
2024-04-07T21:45:07.919Z,5.80
2024-04-07T21:47:36.014Z,4.50
2024-04-07T21:50:04.052Z,10.70
2024-04-07T21:52:31.933Z,7.20
2024-04-07T21:54:59.702Z,8.90
2024-04-07T21:57:28.064Z,5.40
2024-04-07T21:59:56.515Z,6.40
2024-04-07T22:02:24.622Z,4.40
2024-04-07T22:04:52.650Z,4.50
2024-04-07T22:07:20.714Z,4.30
2024-04-07T22:09:49.257Z,5.80
2024-04-07T22:12:17.820Z,8.10
2024-04-07T22:14:45.712Z,4.40
2024-04-07T22:17:13.693Z,6.00
2024-04-07T22:19:41.756Z,6.10
2024-04-07T22:22:09.729Z,8.60
2024-04-07T22:24:38.697Z,8.60
2024-04-07T22:27:06.749Z,6.40
2024-04-07T22:29:34.616Z,4.90
2024-04-07T22:32:03.358Z,4.00
2024-04-07T22:34:31.379Z,11.40
2024-04-07T22:36:59.293Z,5.20
2024-04-07T22:39:27.011Z,7.50
2024-04-07T22:41:55.107Z,6.30
2024-04-07T22:44:23.078Z,7.10
2024-04-07T22:46:51.068Z,6.10
2024-04-07T22:49:18.924Z,11.40
2024-04-07T22:51:46.740Z,6.30
2024-04-07T22:54:14.929Z,5.30
2024-04-07T22:56:43.282Z,7.40
2024-04-07T22:59:11.133Z,8.30
2024-04-07T23:01:39.539Z,6.10
2024-04-07T23:04:07.439Z,9.20
2024-04-07T23:06:35.866Z,6.70
2024-04-07T23:09:03.722Z,9.00
2024-04-07T23:11:31.856Z,7.00
2024-04-07T23:13:59.868Z,6.90
2024-04-07T23:16:27.579Z,6.40
2024-04-07T23:18:55.545Z,9.10
2024-04-07T23:21:23.587Z,6.10
2024-04-07T23:23:51.465Z,6.60
2024-04-07T23:26:19.632Z,9.00
2024-04-07T23:28:47.864Z,6.10
2024-04-07T23:31:23.461Z,5.40
2024-04-07T23:33:54.305Z,8.40
2024-04-07T23:36:22.403Z,5.40
2024-04-07T23:38:50.425Z,8.30
2024-04-07T23:41:18.367Z,11.60
2024-04-07T23:43:46.220Z,5.70
2024-04-07T23:46:14.030Z,8.90
2024-04-07T23:48:41.933Z,6.90
2024-04-07T23:51:10.087Z,8.30
2024-04-07T23:53:38.166Z,7.00
2024-04-07T23:56:06.085Z,6.40
2024-04-07T23:58:34.072Z,5.80
